sensor_id;sensor_type;location;lat;lon;timestamp;pressure;altitude;pressure_sealevel;temperature;humidity
38400;BME280;24180;42.676;23.320;2022-08-23T00:02:15;94119.13;;;18.40;100.00
38400;BME280;24180;42.676;23.320;2022-08-23T00:04:42;94129.41;;;18.48;100.00
38400;BME280;24180;42.676;23.320;2022-08-23T00:07:11;94127.19;;;18.52;100.00
38400;BME280;24180;42.676;23.320;2022-08-23T00:09:38;94127.56;;;18.62;100.00
38400;BME280;24180;42.676;23.320;2022-08-23T00:12:14;94140.28;;;18.65;100.00
38400;BME280;24180;42.676;23.320;2022-08-23T00:14:48;94148.31;;;18.70;100.00
38400;BME280;24180;42.676;23.320;2022-08-23T00:17:15;94140.44;;;18.77;100.00
38400;BME280;24180;42.676;23.320;2022-08-23T00:19:43;94145.84;;;18.82;100.00
38400;BME280;24180;42.676;23.320;2022-08-23T00:22:10;94129.31;;;18.75;100.00
38400;BME280;24180;42.676;23.320;2022-08-23T00:24:36;94143.22;;;18.82;100.00
38400;BME280;24180;42.676;23.320;2022-08-23T00:27:11;94142.06;;;18.71;100.00
38400;BME280;24180;42.676;23.320;2022-08-23T00:29:43;94139.06;;;18.54;100.00
38400;BME280;24180;42.676;23.320;2022-08-23T00:32:14;94138.69;;;18.44;100.00
38400;BME280;24180;42.676;23.320;2022-08-23T00:34:41;94135.88;;;18.39;100.00
38400;BME280;24180;42.676;23.320;2022-08-23T00:37:08;94128.66;;;18.21;100.00
38400;BME280;24180;42.676;23.320;2022-08-23T00:39:35;94148.81;;;18.28;100.00
38400;BME280;24180;42.676;23.320;2022-08-23T00:48:21;94139.16;;;18.15;100.00
38400;BME280;24180;42.676;23.320;2022-08-23T00:50:59;94134.34;;;18.05;100.00
38400;BME280;24180;42.676;23.320;2022-08-23T00:53:29;94138.97;;;18.03;100.00
38400;BME280;24180;42.676;23.320;2022-08-23T00:56:00;94136.97;;;17.99;100.00
38400;BME280;24180;42.676;23.320;2022-08-23T00:58:29;94133.75;;;17.97;100.00
38400;BME280;24180;42.676;23.320;2022-08-23T01:00:58;94142.19;;;17.99;100.00
38400;BME280;24180;42.676;23.320;2022-08-23T01:03:28;94120.25;;;17.80;100.00
38400;BME280;24180;42.676;23.320;2022-08-23T01:08:25;94130.69;;;18.06;100.00
38400;BME280;24180;42.676;23.320;2022-08-23T01:11:02;94130.72;;;18.00;100.00
38400;BME280;24180;42.676;23.320;2022-08-23T01:13:42;94123.47;;;17.89;100.00
38400;BME280;24180;42.676;23.320;2022-08-23T01:16:14;94132.31;;;17.94;100.00
38400;BME280;24180;42.676;23.320;2022-08-23T01:18:45;94133.75;;;17.97;100.00
38400;BME280;24180;42.676;23.320;2022-08-23T01:24:24;94125.09;;;17.96;100.00
38400;BME280;24180;42.676;23.320;2022-08-23T01:26:50;94143.00;;;18.12;100.00
38400;BME280;24180;42.676;23.320;2022-08-23T01:29:17;94123.63;;;18.13;100.00
38400;BME280;24180;42.676;23.320;2022-08-23T01:31:43;94133.50;;;18.18;100.00
38400;BME280;24180;42.676;23.320;2022-08-23T01:34:10;94127.81;;;18.34;100.00
38400;BME280;24180;42.676;23.320;2022-08-23T01:36:36;94125.19;;;18.34;100.00
38400;BME280;24180;42.676;23.320;2022-08-23T01:39:06;94131.63;;;18.45;100.00
38400;BME280;24180;42.676;23.320;2022-08-23T01:41:32;94138.69;;;18.57;100.00
38400;BME280;24180;42.676;23.320;2022-08-23T01:43:58;94145.91;;;18.68;100.00
38400;BME280;24180;42.676;23.320;2022-08-23T01:46:25;94153.38;;;18.65;100.00
38400;BME280;24180;42.676;23.320;2022-08-23T01:48:52;94155.56;;;18.75;100.00
38400;BME280;24180;42.676;23.320;2022-08-23T01:51:20;94167.22;;;18.79;100.00
38400;BME280;24180;42.676;23.320;2022-08-23T01:53:47;94149.50;;;18.74;100.00
38400;BME280;24180;42.676;23.320;2022-08-23T01:56:14;94138.84;;;18.69;100.00
38400;BME280;24180;42.676;23.320;2022-08-23T01:58:41;94154.34;;;18.70;100.00
38400;BME280;24180;42.676;23.320;2022-08-23T02:01:06;94149.56;;;18.61;100.00
38400;BME280;24180;42.676;23.320;2022-08-23T02:03:34;94146.38;;;18.52;100.00
38400;BME280;24180;42.676;23.320;2022-08-23T02:05:59;94144.34;;;18.41;100.00
38400;BME280;24180;42.676;23.320;2022-08-23T02:08:25;94147.38;;;18.32;100.00
38400;BME280;24180;42.676;23.320;2022-08-23T02:11:12;94160.53;;;18.25;100.00
38400;BME280;24180;42.676;23.320;2022-08-23T02:13:40;94146.44;;;18.13;100.00
38400;BME280;24180;42.676;23.320;2022-08-23T02:16:06;94158.50;;;18.14;100.00
38400;BME280;24180;42.676;23.320;2022-08-23T02:18:32;94141.19;;;18.00;100.00
38400;BME280;24180;42.676;23.320;2022-08-23T02:20:57;94134.72;;;18.02;100.00
38400;BME280;24180;42.676;23.320;2022-08-23T02:23:25;94136.97;;;17.99;100.00
38400;BME280;24180;42.676;23.320;2022-08-23T02:25:50;94125.06;;;17.90;100.00
38400;BME280;24180;42.676;23.320;2022-08-23T02:28:19;94121.84;;;18.01;100.00
38400;BME280;24180;42.676;23.320;2022-08-23T02:30:45;94127.69;;;18.03;100.00
38400;BME280;24180;42.676;23.320;2022-08-23T02:33:11;94122.06;;;17.99;100.00
38400;BME280;24180;42.676;23.320;2022-08-23T02:35:37;94120.44;;;18.05;100.00
38400;BME280;24180;42.676;23.320;2022-08-23T02:38:09;94127.66;;;18.16;100.00
38400;BME280;24180;42.676;23.320;2022-08-23T02:40:36;94134.13;;;18.20;100.00
38400;BME280;24180;42.676;23.320;2022-08-23T02:43:03;94130.88;;;18.18;100.00
38400;BME280;24180;42.676;23.320;2022-08-23T02:45:29;94134.69;;;18.22;100.00
38400;BME280;24180;42.676;23.320;2022-08-23T02:47:55;94136.09;;;18.31;100.00
38400;BME280;24180;42.676;23.320;2022-08-23T02:50:21;94128.66;;;18.28;100.00
38400;BME280;24180;42.676;23.320;2022-08-23T02:52:47;94136.72;;;18.33;100.00
38400;BME280;24180;42.676;23.320;2022-08-23T02:55:24;94141.50;;;18.43;100.00
38400;BME280;24180;42.676;23.320;2022-08-23T02:58:11;94150.38;;;18.48;100.00
38400;BME280;24180;42.676;23.320;2022-08-23T03:00:37;94147.97;;;18.40;100.00
38400;BME280;24180;42.676;23.320;2022-08-23T03:03:03;94147.97;;;18.40;100.00
38400;BME280;24180;42.676;23.320;2022-08-23T03:05:30;94154.00;;;18.47;100.00
38400;BME280;24180;42.676;23.320;2022-08-23T03:07:57;94154.84;;;18.41;100.00
38400;BME280;24180;42.676;23.320;2022-08-23T03:10:23;94165.09;;;18.49;100.00
38400;BME280;24180;42.676;23.320;2022-08-23T03:12:48;94152.41;;;18.40;100.00
38400;BME280;24180;42.676;23.320;2022-08-23T03:15:14;94149.19;;;18.31;100.00
38400;BME280;24180;42.676;23.320;2022-08-23T03:17:43;94158.47;;;18.40;100.00
38400;BME280;24180;42.676;23.320;2022-08-23T03:20:09;94151.78;;;18.38;100.00
38400;BME280;24180;42.676;23.320;2022-08-23T03:22:34;94141.53;;;18.36;100.00
38400;BME280;24180;42.676;23.320;2022-08-23T03:25:00;94144.13;;;18.43;100.00
38400;BME280;24180;42.676;23.320;2022-08-23T03:27:26;94147.97;;;18.40;100.00
38400;BME280;24180;42.676;23.320;2022-08-23T03:29:51;94151.59;;;18.39;100.00
38400;BME280;24180;42.676;23.320;2022-08-23T03:32:17;94161.66;;;18.42;100.00
38400;BME280;24180;42.676;23.320;2022-08-23T03:34:44;94152.81;;;18.43;100.00
38400;BME280;24180;42.676;23.320;2022-08-23T03:37:10;94162.88;;;18.46;100.00
38400;BME280;24180;42.676;23.320;2022-08-23T03:39:36;94163.28;;;18.43;100.00
38400;BME280;24180;42.676;23.320;2022-08-23T03:42:02;94155.84;;;18.40;100.00
38400;BME280;24180;42.676;23.320;2022-08-23T03:44:27;94157.25;;;18.36;100.00
38400;BME280;24180;42.676;23.320;2022-08-23T03:46:53;94165.94;;;18.37;100.00
38400;BME280;24180;42.676;23.320;2022-08-23T03:49:20;94179.63;;;18.45;100.00
38400;BME280;24180;42.676;23.320;2022-08-23T03:51:45;94174.19;;;18.34;100.00
38400;BME280;24180;42.676;23.320;2022-08-23T03:54:11;94181.44;;;18.38;100.00
38400;BME280;24180;42.676;23.320;2022-08-23T03:56:58;94195.16;;;18.40;100.00
38400;BME280;24180;42.676;23.320;2022-08-23T03:59:27;94198.78;;;18.39;100.00
38400;BME280;24180;42.676;23.320;2022-08-23T04:01:52;94205.66;;;18.40;100.00
38400;BME280;24180;42.676;23.320;2022-08-23T04:04:18;94192.97;;;18.37;100.00
38400;BME280;24180;42.676;23.320;2022-08-23T04:06:45;94209.69;;;18.36;100.00
38400;BME280;24180;42.676;23.320;2022-08-23T04:09:12;94207.66;;;18.45;100.00
38400;BME280;24180;42.676;23.320;2022-08-23T04:11:38;94197.97;;;18.39;100.00
38400;BME280;24180;42.676;23.320;2022-08-23T04:14:04;94208.06;;;18.48;100.00
38400;BME280;24180;42.676;23.320;2022-08-23T04:16:32;94213.72;;;18.52;100.00
38400;BME280;24180;42.676;23.320;2022-08-23T04:19:11;94218.56;;;18.61;100.00
38400;BME280;24180;42.676;23.320;2022-08-23T04:21:39;94215.72;;;18.56;100.00
38400;BME280;24180;42.676;23.320;2022-08-23T04:24:07;94235.50;;;18.65;100.00
38400;BME280;24180;42.676;23.320;2022-08-23T04:26:34;94237.91;;;18.60;100.00
38400;BME280;24180;42.676;23.320;2022-08-23T04:29:00;94243.16;;;18.54;100.00
38400;BME280;24180;42.676;23.320;2022-08-23T04:31:28;94240.13;;;18.44;100.00
38400;BME280;24180;42.676;23.320;2022-08-23T04:33:55;94235.09;;;18.49;100.00
38400;BME280;24180;42.676;23.320;2022-08-23T04:36:21;94236.09;;;18.48;100.00
38400;BME280;24180;42.676;23.320;2022-08-23T04:38:47;94242.94;;;18.42;100.00
38400;BME280;24180;42.676;23.320;2022-08-23T04:41:13;94234.69;;;18.39;100.00
38400;BME280;24180;42.676;23.320;2022-08-23T04:43:59;94237.50;;;18.31;100.00
38400;BME280;24180;42.676;23.320;2022-08-23T04:46:26;94234.69;;;18.25;100.00
38400;BME280;24180;42.676;23.320;2022-08-23T04:48:53;94237.28;;;18.39;100.00
38400;BME280;24180;42.676;23.320;2022-08-23T04:51:18;94241.56;;;18.53;100.00
38400;BME280;24180;42.676;23.320;2022-08-23T04:53:44;94238.31;;;18.44;100.00
38400;BME280;24180;42.676;23.320;2022-08-23T04:56:10;94234.28;;;18.48;100.00
38400;BME280;24180;42.676;23.320;2022-08-23T04:58:38;94234.28;;;18.48;100.00
38400;BME280;24180;42.676;23.320;2022-08-23T05:01:07;94250.81;;;18.55;100.00
38400;BME280;24180;42.676;23.320;2022-08-23T05:03:33;94254.44;;;18.67;100.00
38400;BME280;24180;42.676;23.320;2022-08-23T05:05:59;94246.56;;;18.67;100.00
38400;BME280;24180;42.676;23.320;2022-08-23T05:08:26;94264.91;;;18.81;100.00
38400;BME280;24180;42.676;23.320;2022-08-23T05:10:52;94253.59;;;18.80;100.00
38400;BME280;24180;42.676;23.320;2022-08-23T05:13:17;94247.53;;;18.93;100.00
38400;BME280;24180;42.676;23.320;2022-08-23T05:15:44;94275.34;;;18.94;100.00
38400;BME280;24180;42.676;23.320;2022-08-23T05:18:11;94280.19;;;18.97;100.00
38400;BME280;24180;42.676;23.320;2022-08-23T05:20:38;94287.03;;;18.98;100.00
38400;BME280;24180;42.676;23.320;2022-08-23T05:23:04;94288.84;;;19.04;100.00
38400;BME280;24180;42.676;23.320;2022-08-23T05:25:30;94292.66;;;19.21;100.00
38400;BME280;24180;42.676;23.320;2022-08-23T05:28:15;94294.84;;;19.24;100.00
38400;BME280;24180;42.676;23.320;2022-08-23T05:30:41;94305.31;;;19.31;100.00
38400;BME280;24180;42.676;23.320;2022-08-23T05:33:08;94295.00;;;19.42;100.00
38400;BME280;24180;42.676;23.320;2022-08-23T05:35:33;94297.56;;;19.55;100.00
38400;BME280;24180;42.676;23.320;2022-08-23T05:37:59;94307.28;;;19.93;100.00
38400;BME280;24180;42.676;23.320;2022-08-23T05:40:27;94308.34;;;20.17;100.00
38400;BME280;24180;42.676;23.320;2022-08-23T05:42:53;94288.22;;;20.04;100.00
38400;BME280;24180;42.676;23.320;2022-08-23T05:45:21;94325.75;;;20.11;100.00
38400;BME280;24180;42.676;23.320;2022-08-23T05:47:47;94322.44;;;19.97;100.00
38400;BME280;24180;42.676;23.320;2022-08-23T05:50:14;94309.16;;;19.86;100.00
38400;BME280;24180;42.676;23.320;2022-08-23T05:52:39;94309.09;;;19.92;100.00
38400;BME280;24180;42.676;23.320;2022-08-23T05:55:06;94310.84;;;20.05;100.00
38400;BME280;24180;42.676;23.320;2022-08-23T05:57:36;94320.84;;;20.21;100.00
38400;BME280;24180;42.676;23.320;2022-08-23T06:00:07;94322.81;;;20.32;100.00
38400;BME280;24180;42.676;23.320;2022-08-23T06:02:40;94335.97;;;20.32;100.00
38400;BME280;24180;42.676;23.320;2022-08-23T06:05:08;94328.75;;;20.52;100.00
38400;BME280;24180;42.676;23.320;2022-08-23T06:07:35;94340.94;;;20.72;100.00
38400;BME280;24180;42.676;23.320;2022-08-23T06:10:04;94353.44;;;21.01;100.00
38400;BME280;24180;42.676;23.320;2022-08-23T06:12:31;94353.34;;;21.14;100.00
38400;BME280;24180;42.676;23.320;2022-08-23T06:14:59;94357.63;;;21.27;100.00
38400;BME280;24180;42.676;23.320;2022-08-23T06:17:25;94345.56;;;21.19;100.00
38400;BME280;24180;42.676;23.320;2022-08-23T06:19:52;94357.22;;;21.30;100.00
38400;BME280;24180;42.676;23.320;2022-08-23T06:22:18;94355.25;;;21.62;100.00
38400;BME280;24180;42.676;23.320;2022-08-23T06:24:43;94373.38;;;22.06;100.00
38400;BME280;24180;42.676;23.320;2022-08-23T06:27:09;94368.66;;;22.26;100.00
38400;BME280;24180;42.676;23.320;2022-08-23T06:29:35;94367.84;;;22.79;100.00
38400;BME280;24180;42.676;23.320;2022-08-23T06:32:04;94376.63;;;23.14;100.00
38400;BME280;24180;42.676;23.320;2022-08-23T06:34:32;94379.28;;;23.03;100.00
38400;BME280;24180;42.676;23.320;2022-08-23T06:37:01;94373.28;;;22.96;100.00
38400;BME280;24180;42.676;23.320;2022-08-23T06:39:31;94377.63;;;22.78;100.00
38400;BME280;24180;42.676;23.320;2022-08-23T06:41:59;94373.97;;;22.38;100.00
38400;BME280;24180;42.676;23.320;2022-08-23T06:44:25;94372.72;;;22.52;100.00
38400;BME280;24180;42.676;23.320;2022-08-23T06:46:53;94371.22;;;22.15;100.00
38400;BME280;24180;42.676;23.320;2022-08-23T06:49:22;94388.34;;;21.94;100.00
38400;BME280;24180;42.676;23.320;2022-08-23T06:51:52;94386.88;;;21.98;100.00
38400;BME280;24180;42.676;23.320;2022-08-23T06:54:24;94389.63;;;22.03;100.00
38400;BME280;24180;42.676;23.320;2022-08-23T06:56:51;94395.69;;;22.22;100.00
38400;BME280;24180;42.676;23.320;2022-08-23T06:59:19;94387.44;;;22.00;100.00
38400;BME280;24180;42.676;23.320;2022-08-23T07:01:57;94392.41;;;21.72;100.00
38400;BME280;24180;42.676;23.320;2022-08-23T07:04:29;94386.69;;;21.75;100.00
38400;BME280;24180;42.676;23.320;2022-08-23T07:06:55;94391.78;;;21.95;100.00
38400;BME280;24180;42.676;23.320;2022-08-23T07:09:22;94378.59;;;22.24;100.00
38400;BME280;24180;42.676;23.320;2022-08-23T07:11:48;94392.91;;;23.00;100.00
38400;BME280;24180;42.676;23.320;2022-08-23T07:14:15;94397.19;;;23.47;100.00
38400;BME280;24180;42.676;23.320;2022-08-23T07:16:44;94389.00;;;23.72;100.00
38400;BME280;24180;42.676;23.320;2022-08-23T07:19:13;94395.72;;;24.03;100.00
38400;BME280;24180;42.676;23.320;2022-08-23T07:21:39;94392.97;;;23.98;100.00
38400;BME280;24180;42.676;23.320;2022-08-23T07:24:05;94398.19;;;23.81;100.00
38400;BME280;24180;42.676;23.320;2022-08-23T07:26:33;94400.19;;;23.62;100.00
38400;BME280;24180;42.676;23.320;2022-08-23T07:28:58;94392.53;;;23.89;100.00
38400;BME280;24180;42.676;23.320;2022-08-23T07:31:27;94382.44;;;24.26;100.00
38400;BME280;24180;42.676;23.320;2022-08-23T07:33:56;94384.38;;;24.31;100.00
38400;BME280;24180;42.676;23.320;2022-08-23T07:36:23;94395.09;;;24.24;100.00
38400;BME280;24180;42.676;23.320;2022-08-23T07:38:51;94391.38;;;24.37;100.00
38400;BME280;24180;42.676;23.320;2022-08-23T07:41:17;94393.03;;;24.54;100.00
38400;BME280;24180;42.676;23.320;2022-08-23T07:43:43;94400.75;;;24.44;100.00
38400;BME280;24180;42.676;23.320;2022-08-23T07:46:09;94383.03;;;24.16;100.00
38400;BME280;24180;42.676;23.320;2022-08-23T07:48:36;94398.00;;;24.51;100.00
38400;BME280;24180;42.676;23.320;2022-08-23T07:51:04;94380.25;;;24.51;100.00
38400;BME280;24180;42.676;23.320;2022-08-23T07:53:32;94395.22;;;24.74;100.00
38400;BME280;24180;42.676;23.320;2022-08-23T07:56:06;94401.38;;;24.91;100.00
38400;BME280;24180;42.676;23.320;2022-08-23T07:58:32;94401.19;;;25.31;100.00
38400;BME280;24180;42.676;23.320;2022-08-23T08:01:08;94398.94;;;25.78;100.00
38400;BME280;24180;42.676;23.320;2022-08-23T08:03:36;94404.69;;;25.92;100.00
38400;BME280;24180;42.676;23.320;2022-08-23T08:06:08;94412.03;;;26.06;100.00
38400;BME280;24180;42.676;23.320;2022-08-23T08:08:38;94404.47;;;26.15;100.00
38400;BME280;24180;42.676;23.320;2022-08-23T08:11:06;94415.13;;;25.98;100.00
38400;BME280;24180;42.676;23.320;2022-08-23T08:13:36;94412.25;;;25.61;100.00
38400;BME280;24180;42.676;23.320;2022-08-23T08:16:02;94414.53;;;25.20;100.00
38400;BME280;24180;42.676;23.320;2022-08-23T08:18:28;94414.69;;;25.30;100.00
38400;BME280;24180;42.676;23.320;2022-08-23T08:20:55;94422.94;;;25.50;100.00
38400;BME280;24180;42.676;23.320;2022-08-23T08:23:20;94423.66;;;25.62;100.00
38400;BME280;24180;42.676;23.320;2022-08-23T08:25:46;94424.53;;;25.51;100.00
38400;BME280;24180;42.676;23.320;2022-08-23T08:28:12;94429.44;;;25.97;100.00
38400;BME280;24180;42.676;23.320;2022-08-23T08:30:37;94418.03;;;25.75;100.00
38400;BME280;24180;42.676;23.320;2022-08-23T08:33:03;94419.69;;;25.81;100.00
38400;BME280;24180;42.676;23.320;2022-08-23T08:35:29;94425.78;;;25.82;100.00
38400;BME280;24180;42.676;23.320;2022-08-23T08:37:55;94428.88;;;26.17;100.00
38400;BME280;24180;42.676;23.320;2022-08-23T08:40:27;94436.97;;;26.49;100.00
38400;BME280;24180;42.676;23.320;2022-08-23T08:46:01;94430.41;;;26.13;100.00
38400;BME280;24180;42.676;23.320;2022-08-23T08:48:29;94431.28;;;26.40;100.00
38400;BME280;24180;42.676;23.320;2022-08-23T08:51:02;94423.66;;;26.44;100.00
38400;BME280;24180;42.676;23.320;2022-08-23T08:53:39;94426.13;;;26.29;100.00
38400;BME280;24180;42.676;23.320;2022-08-23T08:58:48;94410.63;;;26.69;100.00
38400;BME280;24180;42.676;23.320;2022-08-23T09:01:16;94402.59;;;26.64;100.00
38400;BME280;24180;42.676;23.320;2022-08-23T09:03:41;94405.91;;;26.76;100.00
38400;BME280;24180;42.676;23.320;2022-08-23T09:06:15;94398.59;;;26.35;100.00
38400;BME280;24180;42.676;23.320;2022-08-23T09:14:41;94393.25;;;26.83;100.00
38400;BME280;24180;42.676;23.320;2022-08-23T09:17:38;94385.72;;;26.48;100.00
38400;BME280;24180;42.676;23.320;2022-08-23T09:20:07;94385.78;;;26.27;100.00
38400;BME280;24180;42.676;23.320;2022-08-23T09:22:36;94391.69;;;26.34;100.00
38400;BME280;24180;42.676;23.320;2022-08-23T09:25:04;94387.47;;;26.65;100.00
38400;BME280;24180;42.676;23.320;2022-08-23T09:27:30;94384.47;;;26.56;100.00
38400;BME280;24180;42.676;23.320;2022-08-23T09:29:58;94394.63;;;26.64;100.00
38400;BME280;24180;42.676;23.320;2022-08-23T09:32:30;94395.91;;;26.83;100.00
38400;BME280;24180;42.676;23.320;2022-08-23T09:38:18;94394.47;;;27.34;100.00
38400;BME280;24180;42.676;23.320;2022-08-23T09:40:47;94395.97;;;27.25;100.00
38400;BME280;24180;42.676;23.320;2022-08-23T09:43:17;94390.41;;;27.27;100.00
38400;BME280;24180;42.676;23.320;2022-08-23T09:45:59;94394.69;;;27.33;100.00
38400;BME280;24180;42.676;23.320;2022-08-23T09:48:41;94394.47;;;27.34;100.00
38400;BME280;24180;42.676;23.320;2022-08-23T09:51:36;94391.84;;;27.81;100.00
38400;BME280;24180;42.676;23.320;2022-08-23T09:56:43;94392.59;;;28.34;100.00
38400;BME280;24180;42.676;23.320;2022-08-23T10:02:29;94383.16;;;29.04;94.37
38400;BME280;24180;42.676;23.320;2022-08-23T10:05:05;94384.13;;;29.84;92.77
38400;BME280;24180;42.676;23.320;2022-08-23T10:07:56;94391.91;;;32.37;80.19
38400;BME280;24180;42.676;23.320;2022-08-23T10:10:48;94388.75;;;33.75;67.23
38400;BME280;24180;42.676;23.320;2022-08-23T10:13:46;94398.25;;;34.13;57.81
38400;BME280;24180;42.676;23.320;2022-08-23T10:24:47;94394.97;;;40.06;36.09
38400;BME280;24180;42.676;23.320;2022-08-23T10:45:56;94374.97;;;35.52;42.95
38400;BME280;24180;42.676;23.320;2022-08-23T10:49:00;94367.31;;;34.79;45.13
38400;BME280;24180;42.676;23.320;2022-08-23T10:51:35;94373.41;;;33.62;50.55
38400;BME280;24180;42.676;23.320;2022-08-23T10:54:07;94369.19;;;32.72;59.05
38400;BME280;24180;42.676;23.320;2022-08-23T10:56:53;94371.16;;;31.77;69.00
38400;BME280;24180;42.676;23.320;2022-08-23T10:59:22;94371.53;;;31.36;68.23
38400;BME280;24180;42.676;23.320;2022-08-23T11:05:33;94372.97;;;30.46;77.79
38400;BME280;24180;42.676;23.320;2022-08-23T11:08:34;94372.59;;;30.62;79.47
38400;BME280;24180;42.676;23.320;2022-08-23T11:14:06;94374.81;;;30.50;80.95
38400;BME280;24180;42.676;23.320;2022-08-23T11:16:44;94357.97;;;29.96;78.22
38400;BME280;24180;42.676;23.320;2022-08-23T11:22:30;94364.97;;;29.66;82.45
38400;BME280;24180;42.676;23.320;2022-08-23T11:25:46;94358.00;;;29.75;83.14
38400;BME280;24180;42.676;23.320;2022-08-23T11:28:43;94370.75;;;30.09;83.10
38400;BME280;24180;42.676;23.320;2022-08-23T11:35:11;94358.03;;;30.40;81.16
38400;BME280;24180;42.676;23.320;2022-08-23T11:37:55;94342.75;;;30.50;79.42
38400;BME280;24180;42.676;23.320;2022-08-23T11:43:33;94354.97;;;30.61;77.05
38400;BME280;24180;42.676;23.320;2022-08-23T11:53:06;94357.50;;;33.01;52.74
38400;BME280;24180;42.676;23.320;2022-08-23T11:59:05;94359.44;;;31.96;57.69
38400;BME280;24180;42.676;23.320;2022-08-23T12:01:52;94367.03;;;31.32;65.72
38400;BME280;24180;42.676;23.320;2022-08-23T12:11:07;94356.06;;;32.71;55.32
38400;BME280;24180;42.676;23.320;2022-08-23T12:14:30;94352.19;;;35.28;47.27
38400;BME280;24180;42.676;23.320;2022-08-23T12:20:10;94342.50;;;38.70;35.93
38400;BME280;24180;42.676;23.320;2022-08-23T12:26:07;94335.16;;;38.21;37.34
38400;BME280;24180;42.676;23.320;2022-08-23T12:32:34;94341.03;;;38.23;36.62
38400;BME280;24180;42.676;23.320;2022-08-23T12:38:07;94354.34;;;35.17;47.54
38400;BME280;24180;42.676;23.320;2022-08-23T12:44:03;94330.81;;;33.09;57.53
38400;BME280;24180;42.676;23.320;2022-08-23T12:46:41;94350.03;;;32.41;61.42
38400;BME280;24180;42.676;23.320;2022-08-23T12:52:31;94316.44;;;31.06;68.09
38400;BME280;24180;42.676;23.320;2022-08-23T12:58:26;94335.47;;;31.00;74.63
38400;BME280;24180;42.676;23.320;2022-08-23T13:01:07;94337.16;;;30.86;76.80
38400;BME280;24180;42.676;23.320;2022-08-23T13:07:05;94339.75;;;30.08;90.26
38400;BME280;24180;42.676;23.320;2022-08-23T13:12:53;94329.81;;;29.24;100.00
38400;BME280;24180;42.676;23.320;2022-08-23T13:15:57;94332.50;;;29.04;100.00
38400;BME280;24180;42.676;23.320;2022-08-23T13:21:44;94330.88;;;28.67;100.00
38400;BME280;24180;42.676;23.320;2022-08-23T13:27:49;94321.75;;;28.23;100.00
38400;BME280;24180;42.676;23.320;2022-08-23T13:33:37;94316.31;;;27.92;100.00
38400;BME280;24180;42.676;23.320;2022-08-23T13:39:24;94321.63;;;27.35;100.00
38400;BME280;24180;42.676;23.320;2022-08-23T13:45:15;94281.78;;;26.67;100.00
38400;BME280;24180;42.676;23.320;2022-08-23T13:51:28;94309.41;;;25.08;100.00
38400;BME280;24180;42.676;23.320;2022-08-23T13:57:16;94322.78;;;23.78;100.00
38400;BME280;24180;42.676;23.320;2022-08-23T13:59:52;94338.09;;;22.60;100.00
38400;BME280;24180;42.676;23.320;2022-08-23T14:02:20;94326.28;;;22.10;100.00
38400;BME280;24180;42.676;23.320;2022-08-23T14:04:46;94314.22;;;21.84;100.00
38400;BME280;24180;42.676;23.320;2022-08-23T14:07:13;94318.47;;;21.67;100.00
38400;BME280;24180;42.676;23.320;2022-08-23T14:09:40;94316.97;;;21.41;100.00
38400;BME280;24180;42.676;23.320;2022-08-23T14:12:12;94329.91;;;21.42;100.00
38400;BME280;24180;42.676;23.320;2022-08-23T14:14:39;94336.06;;;21.36;100.00
38400;BME280;24180;42.676;23.320;2022-08-23T14:17:05;94312.50;;;21.23;100.00
38400;BME280;24180;42.676;23.320;2022-08-23T14:19:32;94307.38;;;21.10;100.00
38400;BME280;24180;42.676;23.320;2022-08-23T14:21:58;94323.94;;;20.92;100.00
38400;BME280;24180;42.676;23.320;2022-08-23T14:24:25;94323.03;;;20.55;100.00
38400;BME280;24180;42.676;23.320;2022-08-23T14:26:51;94327.81;;;20.40;100.00
38400;BME280;24180;42.676;23.320;2022-08-23T14:29:18;94318.06;;;20.16;100.00
38400;BME280;24180;42.676;23.320;2022-08-23T14:31:43;94326.34;;;19.82;100.00
38400;BME280;24180;42.676;23.320;2022-08-23T14:34:10;94326.25;;;19.57;100.00
38400;BME280;24180;42.676;23.320;2022-08-23T14:36:35;94322.31;;;19.15;100.00
38400;BME280;24180;42.676;23.320;2022-08-23T14:39:01;94316.72;;;18.92;100.00
38400;BME280;24180;42.676;23.320;2022-08-23T14:41:28;94323.03;;;18.64;100.00
38400;BME280;24180;42.676;23.320;2022-08-23T14:43:55;94328.09;;;18.53;100.00
38400;BME280;24180;42.676;23.320;2022-08-23T14:46:21;94334.88;;;18.34;100.00
38400;BME280;24180;42.676;23.320;2022-08-23T14:48:47;94338.09;;;18.23;100.00
38400;BME280;24180;42.676;23.320;2022-08-23T14:51:32;94348.97;;;18.00;100.00
38400;BME280;24180;42.676;23.320;2022-08-23T14:53:59;94361.44;;;17.98;100.00
38400;BME280;24180;42.676;23.320;2022-08-23T14:56:26;94351.56;;;17.94;100.00
38400;BME280;24180;42.676;23.320;2022-08-23T14:58:53;94347.72;;;17.90;100.00
38400;BME280;24180;42.676;23.320;2022-08-23T15:01:19;94337.47;;;17.95;100.00
38400;BME280;24180;42.676;23.320;2022-08-23T15:03:45;94323.16;;;18.04;100.00
38400;BME280;24180;42.676;23.320;2022-08-23T15:06:13;94314.53;;;18.16;100.00
38400;BME280;24180;42.676;23.320;2022-08-23T15:08:39;94306.25;;;18.39;100.00
38400;BME280;24180;42.676;23.320;2022-08-23T15:11:06;94293.19;;;18.65;100.00
38400;BME280;24180;42.676;23.320;2022-08-23T15:13:36;94310.47;;;18.93;100.00
38400;BME280;24180;42.676;23.320;2022-08-23T15:16:05;94308.63;;;19.06;100.00
38400;BME280;24180;42.676;23.320;2022-08-23T15:18:33;94298.09;;;19.20;100.00
38400;BME280;24180;42.676;23.320;2022-08-23T15:20:59;94299.16;;;18.99;100.00
38400;BME280;24180;42.676;23.320;2022-08-23T15:23:26;94298.72;;;19.02;100.00